sensor_id;sensor_type;location;lat;lon;timestamp;pressure;altitude;pressure_sealevel;temperature;humidity
2397;BME280;1209;48.410;9.054;2022-07-21T00:01:25;96567.34;;;21.43;100.00
2397;BME280;1209;48.410;9.054;2022-07-21T00:03:50;96578.69;;;21.66;100.00
2397;BME280;1209;48.410;9.054;2022-07-21T00:06:15;96574.47;;;21.54;100.00
2397;BME280;1209;48.410;9.054;2022-07-21T00:08:41;96578.31;;;21.75;100.00
2397;BME280;1209;48.410;9.054;2022-07-21T00:11:06;96560.47;;;21.58;100.00
2397;BME280;1209;48.410;9.054;2022-07-21T00:13:32;96558.72;;;21.64;100.00
2397;BME280;1209;48.410;9.054;2022-07-21T00:15:57;96564.47;;;21.73;100.00
2397;BME280;1209;48.410;9.054;2022-07-21T00:18:24;96559.50;;;21.76;100.00
2397;BME280;1209;48.410;9.054;2022-07-21T00:20:50;96552.41;;;21.82;100.00
2397;BME280;1209;48.410;9.054;2022-07-21T00:23:16;96549.19;;;21.80;100.00
2397;BME280;1209;48.410;9.054;2022-07-21T00:25:42;96553.59;;;21.74;100.00
2397;BME280;1209;48.410;9.054;2022-07-21T00:28:08;96567.69;;;21.75;100.00
2397;BME280;1209;48.410;9.054;2022-07-21T00:30:34;96552.88;;;21.50;100.00
2397;BME280;1209;48.410;9.054;2022-07-21T00:33:01;96534.06;;;21.68;100.00
2397;BME280;1209;48.410;9.054;2022-07-21T00:35:26;96546.81;;;21.66;100.00
2397;BME280;1209;48.410;9.054;2022-07-21T00:40:17;96572.38;;;21.56;100.00
2397;BME280;1209;48.410;9.054;2022-07-21T00:42:43;96580.56;;;21.66;100.00
2397;BME280;1209;48.410;9.054;2022-07-21T00:45:11;96583.22;;;21.66;100.00
2397;BME280;1209;48.410;9.054;2022-07-21T00:47:38;96582.25;;;21.72;100.00
2397;BME280;1209;48.410;9.054;2022-07-21T00:50:11;96602.25;;;21.75;100.00
2397;BME280;1209;48.410;9.054;2022-07-21T00:52:36;96609.59;;;21.56;100.00
2397;BME280;1209;48.410;9.054;2022-07-21T00:55:02;96600.59;;;21.57;100.00
2397;BME280;1209;48.410;9.054;2022-07-21T00:57:28;96596.25;;;21.39;100.00
2397;BME280;1209;48.410;9.054;2022-07-21T00:59:55;96598.28;;;21.49;100.00
2397;BME280;1209;48.410;9.054;2022-07-21T01:02:20;96600.25;;;21.53;100.00
2397;BME280;1209;48.410;9.054;2022-07-21T01:04:45;96590.25;;;21.32;100.00
2397;BME280;1209;48.410;9.054;2022-07-21T01:07:13;96592.75;;;21.50;100.00
2397;BME280;1209;48.410;9.054;2022-07-21T01:09:38;96599.47;;;21.41;100.00
2397;BME280;1209;48.410;9.054;2022-07-21T01:12:04;96596.00;;;21.41;100.00
2397;BME280;1209;48.410;9.054;2022-07-21T01:14:30;96607.56;;;21.34;100.00
2397;BME280;1209;48.410;9.054;2022-07-21T01:16:56;96615.41;;;21.41;100.00
2397;BME280;1209;48.410;9.054;2022-07-21T01:19:21;96627.53;;;21.14;100.00
2397;BME280;1209;48.410;9.054;2022-07-21T01:21:47;96631.91;;;21.20;100.00
2397;BME280;1209;48.410;9.054;2022-07-21T01:24:14;96637.00;;;21.21;100.00
2397;BME280;1209;48.410;9.054;2022-07-21T01:26:45;96639.06;;;21.19;100.00
2397;BME280;1209;48.410;9.054;2022-07-21T01:29:10;96643.13;;;21.10;100.00
2397;BME280;1209;48.410;9.054;2022-07-21T01:31:37;96652.25;;;21.02;100.00
2397;BME280;1209;48.410;9.054;2022-07-21T01:34:03;96645.22;;;21.08;100.00
2397;BME280;1209;48.410;9.054;2022-07-21T01:36:29;96634.47;;;21.03;100.00
2397;BME280;1209;48.410;9.054;2022-07-21T01:38:54;96628.59;;;20.89;100.00
2397;BME280;1209;48.410;9.054;2022-07-21T01:41:38;96624.06;;;20.78;100.00
2397;BME280;1209;48.410;9.054;2022-07-21T01:44:06;96628.56;;;20.78;100.00
2397;BME280;1209;48.410;9.054;2022-07-21T01:46:35;96638.81;;;20.74;100.00
2397;BME280;1209;48.410;9.054;2022-07-21T01:49:01;96643.78;;;20.70;100.00
2397;BME280;1209;48.410;9.054;2022-07-21T01:51:27;96636.16;;;20.74;100.00
2397;BME280;1209;48.410;9.054;2022-07-21T01:53:53;96640.47;;;20.87;100.00
2397;BME280;1209;48.410;9.054;2022-07-21T01:56:23;96640.47;;;20.87;100.00
2397;BME280;1209;48.410;9.054;2022-07-21T01:58:49;96638.41;;;20.89;100.00
2397;BME280;1209;48.410;9.054;2022-07-21T02:01:19;96637.38;;;20.90;100.00
2397;BME280;1209;48.410;9.054;2022-07-21T02:03:46;96631.91;;;20.73;100.00
2397;BME280;1209;48.410;9.054;2022-07-21T02:06:12;96631.69;;;20.86;100.00
2397;BME280;1209;48.410;9.054;2022-07-21T02:08:38;96631.13;;;20.96;100.00
2397;BME280;1209;48.410;9.054;2022-07-21T02:11:04;96637.94;;;21.03;100.00
2397;BME280;1209;48.410;9.054;2022-07-21T02:13:30;96632.41;;;20.93;100.00
2397;BME280;1209;48.410;9.054;2022-07-21T02:15:55;96640.94;;;21.07;100.00
2397;BME280;1209;48.410;9.054;2022-07-21T02:18:21;96637.81;;;20.87;100.00
2397;BME280;1209;48.410;9.054;2022-07-21T02:20:46;96631.09;;;20.72;100.00
2397;BME280;1209;48.410;9.054;2022-07-21T02:23:20;96630.75;;;20.81;100.00
2397;BME280;1209;48.410;9.054;2022-07-21T02:25:46;96630.78;;;20.92;100.00
2397;BME280;1209;48.410;9.054;2022-07-21T02:28:12;96636.19;;;21.09;100.00
2397;BME280;1209;48.410;9.054;2022-07-21T02:30:37;96625.09;;;21.12;100.00
2397;BME280;1209;48.410;9.054;2022-07-21T02:33:03;96638.97;;;21.14;100.00
2397;BME280;1209;48.410;9.054;2022-07-21T02:35:29;96642.78;;;20.95;100.00
2397;BME280;1209;48.410;9.054;2022-07-21T02:37:54;96643.81;;;20.94;100.00
2397;BME280;1209;48.410;9.054;2022-07-21T02:40:20;96636.78;;;20.88;100.00
2397;BME280;1209;48.410;9.054;2022-07-21T02:42:46;96638.97;;;21.02;100.00
2397;BME280;1209;48.410;9.054;2022-07-21T02:45:11;96644.28;;;21.14;100.00
2397;BME280;1209;48.410;9.054;2022-07-21T02:50:17;96635.28;;;21.15;100.00
2397;BME280;1209;48.410;9.054;2022-07-21T02:52:44;96637.25;;;21.08;100.00
2397;BME280;1209;48.410;9.054;2022-07-21T02:55:09;96629.41;;;20.90;100.00
2397;BME280;1209;48.410;9.054;2022-07-21T02:57:35;96631.13;;;20.84;100.00
2397;BME280;1209;48.410;9.054;2022-07-21T03:00:00;96638.75;;;21.04;100.00
2397;BME280;1209;48.410;9.054;2022-07-21T03:02:26;96643.03;;;21.05;100.00
2397;BME280;1209;48.410;9.054;2022-07-21T03:04:51;96632.50;;;20.87;100.00
2397;BME280;1209;48.410;9.054;2022-07-21T03:07:16;96626.03;;;20.83;100.00
2397;BME280;1209;48.410;9.054;2022-07-21T03:09:42;96625.13;;;21.00;100.00
2397;BME280;1209;48.410;9.054;2022-07-21T03:12:07;96631.94;;;21.08;100.00
2397;BME280;1209;48.410;9.054;2022-07-21T03:14:32;96634.34;;;21.10;100.00
2397;BME280;1209;48.410;9.054;2022-07-21T03:16:58;96636.78;;;21.11;100.00
2397;BME280;1209;48.410;9.054;2022-07-21T03:19:25;96634.34;;;20.98;100.00
2397;BME280;1209;48.410;9.054;2022-07-21T03:21:51;96628.81;;;21.11;100.00
2397;BME280;1209;48.410;9.054;2022-07-21T03:24:16;96627.88;;;21.17;100.00
2397;BME280;1209;48.410;9.054;2022-07-21T03:26:41;96638.72;;;21.16;100.00
2397;BME280;1209;48.410;9.054;2022-07-21T03:29:06;96644.06;;;21.04;100.00
2397;BME280;1209;48.410;9.054;2022-07-21T03:31:32;96644.16;;;21.09;100.00
2397;BME280;1209;48.410;9.054;2022-07-21T03:33:57;96655.13;;;21.01;100.00
2397;BME280;1209;48.410;9.054;2022-07-21T03:36:22;96663.69;;;21.03;100.00
2397;BME280;1209;48.410;9.054;2022-07-21T03:38:48;96672.69;;;21.02;100.00
2397;BME280;1209;48.410;9.054;2022-07-21T03:41:14;96676.38;;;21.01;100.00
2397;BME280;1209;48.410;9.054;2022-07-21T03:43:40;96677.19;;;21.13;100.00
2397;BME280;1209;48.410;9.054;2022-07-21T03:46:05;96668.41;;;21.13;100.00
2397;BME280;1209;48.410;9.054;2022-07-21T03:48:31;96669.81;;;21.15;100.00
2397;BME280;1209;48.410;9.054;2022-07-21T03:50:56;96676.28;;;21.08;100.00
2397;BME280;1209;48.410;9.054;2022-07-21T03:53:22;96683.09;;;21.15;100.00
2397;BME280;1209;48.410;9.054;2022-07-21T03:55:47;96675.22;;;21.20;100.00
2397;BME280;1209;48.410;9.054;2022-07-21T03:58:12;96680.53;;;21.09;100.00
2397;BME280;1209;48.410;9.054;2022-07-21T04:00:41;96677.66;;;21.22;100.00
2397;BME280;1209;48.410;9.054;2022-07-21T04:03:07;96678.13;;;21.07;100.00
2397;BME280;1209;48.410;9.054;2022-07-21T04:05:33;96680.69;;;21.25;100.00
2397;BME280;1209;48.410;9.054;2022-07-21T04:07:59;96678.59;;;21.16;100.00
2397;BME280;1209;48.410;9.054;2022-07-21T04:10:28;96681.13;;;21.11;100.00
2397;BME280;1209;48.410;9.054;2022-07-21T04:12:55;96673.03;;;21.17;100.00
2397;BME280;1209;48.410;9.054;2022-07-21T04:15:21;96672.69;;;21.14;100.00
2397;BME280;1209;48.410;9.054;2022-07-21T04:17:47;96665.19;;;21.22;100.00
2397;BME280;1209;48.410;9.054;2022-07-21T04:20:13;96668.22;;;21.26;100.00
2397;BME280;1209;48.410;9.054;2022-07-21T04:22:40;96678.13;;;21.19;100.00
2397;BME280;1209;48.410;9.054;2022-07-21T04:25:06;96686.44;;;21.11;100.00
2397;BME280;1209;48.410;9.054;2022-07-21T04:27:33;96676.03;;;21.21;100.00
2397;BME280;1209;48.410;9.054;2022-07-21T04:29:59;96679.06;;;21.24;100.00
2397;BME280;1209;48.410;9.054;2022-07-21T04:32:25;96684.97;;;21.26;100.00
2397;BME280;1209;48.410;9.054;2022-07-21T04:34:50;96675.59;;;21.24;100.00
2397;BME280;1209;48.410;9.054;2022-07-21T04:37:16;96677.25;;;21.36;100.00
2397;BME280;1209;48.410;9.054;2022-07-21T04:39:41;96680.22;;;21.28;100.00
2397;BME280;1209;48.410;9.054;2022-07-21T04:42:06;96690.75;;;21.35;100.00
2397;BME280;1209;48.410;9.054;2022-07-21T04:44:32;96695.03;;;21.36;100.00
2397;BME280;1209;48.410;9.054;2022-07-21T04:46:57;96701.72;;;21.27;100.00
2397;BME280;1209;48.410;9.054;2022-07-21T04:49:23;96710.28;;;21.29;100.00
2397;BME280;1209;48.410;9.054;2022-07-21T04:51:48;96713.75;;;21.29;100.00
2397;BME280;1209;48.410;9.054;2022-07-21T04:54:14;96713.41;;;21.38;100.00
2397;BME280;1209;48.410;9.054;2022-07-21T04:56:43;96712.81;;;21.35;100.00
2397;BME280;1209;48.410;9.054;2022-07-21T04:59:09;96712.88;;;21.17;100.00
2397;BME280;1209;48.410;9.054;2022-07-21T05:01:36;96707.63;;;21.41;100.00
2397;BME280;1209;48.410;9.054;2022-07-21T05:04:02;96704.03;;;21.47;100.00
2397;BME280;1209;48.410;9.054;2022-07-21T05:06:27;96697.22;;;21.51;100.00
2397;BME280;1209;48.410;9.054;2022-07-21T05:08:52;96704.81;;;21.59;100.00
2397;BME280;1209;48.410;9.054;2022-07-21T05:11:18;96713.03;;;21.57;100.00
2397;BME280;1209;48.410;9.054;2022-07-21T05:13:43;96703.78;;;21.60;100.00
2397;BME280;1209;48.410;9.054;2022-07-21T05:16:08;96708.31;;;21.48;100.00
2397;BME280;1209;48.410;9.054;2022-07-21T05:18:34;96708.78;;;21.45;100.00
2397;BME280;1209;48.410;9.054;2022-07-21T05:20:59;96710.03;;;21.54;100.00
2397;BME280;1209;48.410;9.054;2022-07-21T05:23:24;96706.69;;;21.47;100.00
2397;BME280;1209;48.410;9.054;2022-07-21T05:25:50;96708.19;;;21.43;100.00
2397;BME280;1209;48.410;9.054;2022-07-21T05:28:15;96721.03;;;21.46;100.00
2397;BME280;1209;48.410;9.054;2022-07-21T05:30:40;96714.78;;;21.52;100.00
2397;BME280;1209;48.410;9.054;2022-07-21T05:33:06;96719.06;;;21.53;100.00
2397;BME280;1209;48.410;9.054;2022-07-21T05:35:31;96717.91;;;21.49;100.00
2397;BME280;1209;48.410;9.054;2022-07-21T05:37:56;96710.28;;;21.52;100.00
2397;BME280;1209;48.410;9.054;2022-07-21T05:40:22;96720.06;;;21.63;100.00
2397;BME280;1209;48.410;9.054;2022-07-21T05:42:47;96726.41;;;21.74;100.00
2397;BME280;1209;48.410;9.054;2022-07-21T05:45:13;96722.38;;;21.83;100.00
2397;BME280;1209;48.410;9.054;2022-07-21T05:47:39;96728.38;;;21.90;100.00
2397;BME280;1209;48.410;9.054;2022-07-21T05:50:05;96719.34;;;21.91;100.00
2397;BME280;1209;48.410;9.054;2022-07-21T05:52:31;96718.56;;;21.79;100.00
2397;BME280;1209;48.410;9.054;2022-07-21T05:54:56;96721.78;;;22.05;100.00
2397;BME280;1209;48.410;9.054;2022-07-21T05:57:21;96725.84;;;21.84;100.00
2397;BME280;1209;48.410;9.054;2022-07-21T05:59:47;96726.16;;;21.99;100.00
2397;BME280;1209;48.410;9.054;2022-07-21T06:02:13;96734.28;;;22.04;100.00
2397;BME280;1209;48.410;9.054;2022-07-21T06:04:38;96727.19;;;22.10;100.00
2397;BME280;1209;48.410;9.054;2022-07-21T06:07:04;96727.13;;;22.33;100.00
2397;BME280;1209;48.410;9.054;2022-07-21T06:09:29;96736.25;;;22.37;100.00
2397;BME280;1209;48.410;9.054;2022-07-21T06:11:54;96740.81;;;22.53;100.00
2397;BME280;1209;48.410;9.054;2022-07-21T06:14:20;96743.38;;;22.48;100.00
2397;BME280;1209;48.410;9.054;2022-07-21T06:16:46;96742.28;;;22.61;100.00
2397;BME280;1209;48.410;9.054;2022-07-21T06:19:12;96751.63;;;22.75;100.00
2397;BME280;1209;48.410;9.054;2022-07-21T06:21:37;96752.88;;;22.84;100.00
2397;BME280;1209;48.410;9.054;2022-07-21T06:24:03;96755.38;;;22.91;100.00
2397;BME280;1209;48.410;9.054;2022-07-21T06:26:28;96757.06;;;22.97;100.00
2397;BME280;1209;48.410;9.054;2022-07-21T06:28:53;96753.59;;;23.13;100.00
2397;BME280;1209;48.410;9.054;2022-07-21T06:31:19;96761.34;;;22.98;100.00
2397;BME280;1209;48.410;9.054;2022-07-21T06:33:44;96760.88;;;23.01;100.00
2397;BME280;1209;48.410;9.054;2022-07-21T06:36:10;96760.16;;;23.06;100.00
2397;BME280;1209;48.410;9.054;2022-07-21T06:38:35;96764.25;;;22.68;100.00
2397;BME280;1209;48.410;9.054;2022-07-21T06:41:01;96773.06;;;22.97;100.00
2397;BME280;1209;48.410;9.054;2022-07-21T06:43:26;96776.22;;;22.94;100.00
2397;BME280;1209;48.410;9.054;2022-07-21T06:45:52;96767.41;;;23.10;100.00
2397;BME280;1209;48.410;9.054;2022-07-21T06:48:17;96771.84;;;22.88;100.00
2397;BME280;1209;48.410;9.054;2022-07-21T06:50:43;96777.13;;;22.59;100.00
2397;BME280;1209;48.410;9.054;2022-07-21T06:53:09;96779.47;;;22.56;100.00
2397;BME280;1209;48.410;9.054;2022-07-21T06:55:35;96784.78;;;22.56;100.00
2397;BME280;1209;48.410;9.054;2022-07-21T06:58:12;96775.94;;;22.39;100.00
2397;BME280;1209;48.410;9.054;2022-07-21T07:00:37;96792.81;;;22.44;100.00
2397;BME280;1209;48.410;9.054;2022-07-21T07:03:03;96787.97;;;22.41;100.00
2397;BME280;1209;48.410;9.054;2022-07-21T07:05:28;96790.44;;;22.31;100.00
2397;BME280;1209;48.410;9.054;2022-07-21T07:07:56;96790.22;;;22.21;100.00
2397;BME280;1209;48.410;9.054;2022-07-21T07:10:22;96789.13;;;22.45;100.00
2397;BME280;1209;48.410;9.054;2022-07-21T07:12:47;96790.97;;;22.45;100.00
2397;BME280;1209;48.410;9.054;2022-07-21T07:15:13;96789.31;;;22.55;100.00
2397;BME280;1209;48.410;9.054;2022-07-21T07:17:38;96784.78;;;22.56;100.00
2397;BME280;1209;48.410;9.054;2022-07-21T07:20:04;96783.97;;;22.55;100.00
2397;BME280;1209;48.410;9.054;2022-07-21T07:22:31;96784.63;;;22.74;100.00
2397;BME280;1209;48.410;9.054;2022-07-21T07:24:56;96789.53;;;22.94;100.00
2397;BME280;1209;48.410;9.054;2022-07-21T07:27:22;96792.25;;;23.28;100.00
2397;BME280;1209;48.410;9.054;2022-07-21T07:29:47;96785.69;;;23.52;100.00
2397;BME280;1209;48.410;9.054;2022-07-21T07:32:12;96789.97;;;23.53;100.00
2397;BME280;1209;48.410;9.054;2022-07-21T07:34:38;96795.53;;;23.51;100.00
2397;BME280;1209;48.410;9.054;2022-07-21T07:37:03;96796.34;;;23.52;100.00
2397;BME280;1209;48.410;9.054;2022-07-21T07:39:28;96784.88;;;23.85;100.00
2397;BME280;1209;48.410;9.054;2022-07-21T07:41:54;96788.78;;;24.16;100.00
2397;BME280;1209;48.410;9.054;2022-07-21T07:44:20;96788.50;;;24.34;100.00
2397;BME280;1209;48.410;9.054;2022-07-21T07:46:46;96784.22;;;24.33;100.00
2397;BME280;1209;48.410;9.054;2022-07-21T07:49:11;96776.56;;;23.81;100.00
2397;BME280;1209;48.410;9.054;2022-07-21T07:51:37;96781.59;;;24.38;100.00
2397;BME280;1209;48.410;9.054;2022-07-21T07:54:02;96781.97;;;24.47;100.00
2397;BME280;1209;48.410;9.054;2022-07-21T07:56:29;96786.53;;;24.73;100.00
2397;BME280;1209;48.410;9.054;2022-07-21T07:58:54;96779.00;;;24.97;100.00
2397;BME280;1209;48.410;9.054;2022-07-21T08:01:20;96781.44;;;24.72;100.00
2397;BME280;1209;48.410;9.054;2022-07-21T08:03:45;96779.88;;;24.76;100.00
2397;BME280;1209;48.410;9.054;2022-07-21T08:06:10;96782.91;;;24.85;100.00
2397;BME280;1209;48.410;9.054;2022-07-21T08:08:36;96790.03;;;24.74;100.00
2397;BME280;1209;48.410;9.054;2022-07-21T08:11:01;96780.03;;;24.64;100.00
2397;BME280;1209;48.410;9.054;2022-07-21T08:13:27;96778.94;;;24.38;100.00
2397;BME280;1209;48.410;9.054;2022-07-21T08:15:52;96778.72;;;24.23;100.00
2397;BME280;1209;48.410;9.054;2022-07-21T08:18:18;96787.63;;;23.90;100.00
2397;BME280;1209;48.410;9.054;2022-07-21T08:20:45;96778.44;;;23.64;100.00
2397;BME280;1209;48.410;9.054;2022-07-21T08:23:11;96785.97;;;23.67;100.00
2397;BME280;1209;48.410;9.054;2022-07-21T08:25:36;96784.81;;;23.46;100.00
2397;BME280;1209;48.410;9.054;2022-07-21T08:28:02;96787.97;;;23.43;100.00
2397;BME280;1209;48.410;9.054;2022-07-21T08:30:28;96790.47;;;23.33;100.00
2397;BME280;1209;48.410;9.054;2022-07-21T08:32:54;96791.13;;;23.57;100.00
2397;BME280;1209;48.410;9.054;2022-07-21T08:35:19;96788.88;;;23.66;100.00
2397;BME280;1209;48.410;9.054;2022-07-21T08:37:57;96784.81;;;23.46;100.00
2397;BME280;1209;48.410;9.054;2022-07-21T08:40:25;96791.75;;;23.47;100.00
2397;BME280;1209;48.410;9.054;2022-07-21T08:42:52;96796.72;;;23.72;100.00
2397;BME280;1209;48.410;9.054;2022-07-21T08:45:18;96792.16;;;24.28;100.00
2397;BME280;1209;48.410;9.054;2022-07-21T08:47:44;96783.25;;;24.66;100.00
2397;BME280;1209;48.410;9.054;2022-07-21T08:50:09;96781.34;;;25.10;100.00
2397;BME280;1209;48.410;9.054;2022-07-21T08:52:35;96780.97;;;25.34;100.00
2397;BME280;1209;48.410;9.054;2022-07-21T08:55:00;96785.22;;;25.62;100.00
2397;BME280;1209;48.410;9.054;2022-07-21T08:57:26;96785.31;;;25.72;100.00
2397;BME280;1209;48.410;9.054;2022-07-21T08:59:51;96778.81;;;25.63;100.00
2397;BME280;1209;48.410;9.054;2022-07-21T09:02:29;96790.28;;;26.00;100.00
2397;BME280;1209;48.410;9.054;2022-07-21T09:04:55;96788.28;;;26.23;96.38
2397;BME280;1209;48.410;9.054;2022-07-21T09:07:21;96781.59;;;26.30;95.87
2397;BME280;1209;48.410;9.054;2022-07-21T09:10:00;96787.69;;;26.73;90.61
2397;BME280;1209;48.410;9.054;2022-07-21T09:12:27;96783.66;;;26.76;91.21
2397;BME280;1209;48.410;9.054;2022-07-21T09:15:12;96782.28;;;26.53;94.15
2397;BME280;1209;48.410;9.054;2022-07-21T09:17:38;96788.56;;;26.26;100.00
2397;BME280;1209;48.410;9.054;2022-07-21T09:20:03;96777.78;;;25.37;100.00
2397;BME280;1209;48.410;9.054;2022-07-21T09:22:29;96775.56;;;25.24;100.00
2397;BME280;1209;48.410;9.054;2022-07-21T09:24:55;96776.31;;;25.19;100.00
2397;BME280;1209;48.410;9.054;2022-07-21T09:27:21;96778.69;;;25.16;100.00
2397;BME280;1209;48.410;9.054;2022-07-21T09:32:31;96774.31;;;25.68;100.00
2397;BME280;1209;48.410;9.054;2022-07-21T09:35:05;96779.53;;;26.38;100.00
2397;BME280;1209;48.410;9.054;2022-07-21T09:37:32;96776.97;;;26.88;93.39
2397;BME280;1209;48.410;9.054;2022-07-21T09:40:00;96785.81;;;26.74;88.94
2397;BME280;1209;48.410;9.054;2022-07-21T09:42:31;96776.53;;;27.22;84.13
2397;BME280;1209;48.410;9.054;2022-07-21T09:45:04;96776.78;;;27.36;80.54
2397;BME280;1209;48.410;9.054;2022-07-21T09:47:31;96776.53;;;27.27;80.20
2397;BME280;1209;48.410;9.054;2022-07-21T09:49:58;96782.44;;;27.44;73.66
2397;BME280;1209;48.410;9.054;2022-07-21T09:52:31;96777.09;;;27.65;79.02
2397;BME280;1209;48.410;9.054;2022-07-21T09:55:10;96773.28;;;27.86;76.63
2397;BME280;1209;48.410;9.054;2022-07-21T09:57:37;96769.41;;;28.33;75.17
2397;BME280;1209;48.410;9.054;2022-07-21T10:00:09;96771.72;;;27.65;74.90
2397;BME280;1209;48.410;9.054;2022-07-21T10:02:35;96782.09;;;26.95;78.63
2397;BME280;1209;48.410;9.054;2022-07-21T10:05:20;96778.03;;;26.72;79.84
2397;BME280;1209;48.410;9.054;2022-07-21T10:07:47;96783.97;;;26.22;83.44
2397;BME280;1209;48.410;9.054;2022-07-21T10:10:14;96769.44;;;26.02;80.97
2397;BME280;1209;48.410;9.054;2022-07-21T10:12:40;96766.06;;;25.75;83.21
2397;BME280;1209;48.410;9.054;2022-07-21T10:15:05;96775.22;;;25.84;86.65
2397;BME280;1209;48.410;9.054;2022-07-21T10:17:31;96770.75;;;26.57;83.17
2397;BME280;1209;48.410;9.054;2022-07-21T10:20:07;96775.44;;;27.13;79.14
2397;BME280;1209;48.410;9.054;2022-07-21T10:22:40;96762.03;;;27.38;78.29
2397;BME280;1209;48.410;9.054;2022-07-21T10:25:09;96766.88;;;27.51;73.61
2397;BME280;1209;48.410;9.054;2022-07-21T10:27:35;96775.72;;;27.57;75.30
2397;BME280;1209;48.410;9.054;2022-07-21T10:30:04;96772.47;;;27.90;70.39
2397;BME280;1209;48.410;9.054;2022-07-21T10:34:59;96763.31;;;28.07;71.37
2397;BME280;1209;48.410;9.054;2022-07-21T10:45:35;96758.44;;;28.73;69.19
2397;BME280;1209;48.410;9.054;2022-07-21T10:48:03;96746.03;;;28.38;71.70
2397;BME280;1209;48.410;9.054;2022-07-21T10:50:31;96753.22;;;28.48;72.67
2397;BME280;1209;48.410;9.054;2022-07-21T10:53:02;96751.03;;;28.55;72.13
2397;BME280;1209;48.410;9.054;2022-07-21T10:55:30;96748.25;;;28.70;71.50
2397;BME280;1209;48.410;9.054;2022-07-21T11:00:51;96749.25;;;29.24;65.51
2397;BME280;1209;48.410;9.054;2022-07-21T11:06:18;96741.44;;;28.34;72.37
2397;BME280;1209;48.410;9.054;2022-07-21T11:11:16;96733.28;;;28.59;71.48
2397;BME280;1209;48.410;9.054;2022-07-21T11:14:09;96729.34;;;28.41;66.50
2397;BME280;1209;48.410;9.054;2022-07-21T11:19:29;96725.00;;;28.95;65.02
2397;BME280;1209;48.410;9.054;2022-07-21T11:21:56;96722.06;;;29.25;64.23
2397;BME280;1209;48.410;9.054;2022-07-21T11:24:22;96714.88;;;30.02;61.10
2397;BME280;1209;48.410;9.054;2022-07-21T11:29:24;96715.41;;;30.47;60.48
2397;BME280;1209;48.410;9.054;2022-07-21T11:31:50;96717.97;;;29.91;60.65
2397;BME280;1209;48.410;9.054;2022-07-21T11:34:15;96710.09;;;29.70;63.76
2397;BME280;1209;48.410;9.054;2022-07-21T11:36:41;96710.44;;;29.64;57.62
2397;BME280;1209;48.410;9.054;2022-07-21T11:39:12;96712.66;;;30.10;56.83
2397;BME280;1209;48.410;9.054;2022-07-21T11:41:39;96721.19;;;30.17;56.09
2397;BME280;1209;48.410;9.054;2022-07-21T11:44:07;96706.06;;;29.68;60.39
2397;BME280;1209;48.410;9.054;2022-07-21T11:46:56;96710.75;;;30.53;55.29
2397;BME280;1209;48.410;9.054;2022-07-21T11:49:23;96709.03;;;30.81;56.93
2397;BME280;1209;48.410;9.054;2022-07-21T11:51:56;96710.50;;;30.30;55.74
2397;BME280;1209;48.410;9.054;2022-07-21T11:56:53;96712.06;;;29.31;57.42
2397;BME280;1209;48.410;9.054;2022-07-21T11:59:19;96699.91;;;28.65;63.96
2397;BME280;1209;48.410;9.054;2022-07-21T12:01:59;96702.06;;;29.36;58.63
2397;BME280;1209;48.410;9.054;2022-07-21T12:04:29;96697.78;;;29.30;60.19
2397;BME280;1209;48.410;9.054;2022-07-21T12:06:56;96692.38;;;29.06;58.57
2397;BME280;1209;48.410;9.054;2022-07-21T12:09:21;96693.84;;;28.83;62.92
2397;BME280;1209;48.410;9.054;2022-07-21T12:11:47;96688.59;;;28.14;60.91
2397;BME280;1209;48.410;9.054;2022-07-21T12:14:12;96686.59;;;28.45;63.02
2397;BME280;1209;48.410;9.054;2022-07-21T12:16:51;96684.97;;;29.22;58.81
2397;BME280;1209;48.410;9.054;2022-07-21T12:19:17;96679.44;;;29.66;60.62
2397;BME280;1209;48.410;9.054;2022-07-21T12:21:51;96683.19;;;30.37;54.10
2397;BME280;1209;48.410;9.054;2022-07-21T12:24:19;96673.63;;;30.26;56.15
2397;BME280;1209;48.410;9.054;2022-07-21T12:26:45;96675.06;;;30.80;58.06
2397;BME280;1209;48.410;9.054;2022-07-21T12:29:25;96677.00;;;30.74;52.10
2397;BME280;1209;48.410;9.054;2022-07-21T12:31:50;96678.56;;;30.80;54.04
2397;BME280;1209;48.410;9.054;2022-07-21T12:34:16;96682.31;;;30.42;53.34
2397;BME280;1209;48.410;9.054;2022-07-21T12:36:44;96682.38;;;29.41;55.24
2397;BME280;1209;48.410;9.054;2022-07-21T12:39:20;96686.81;;;29.56;54.79
2397;BME280;1209;48.410;9.054;2022-07-21T12:42:07;96688.44;;;30.47;52.14
2397;BME280;1209;48.410;9.054;2022-07-21T12:44:32;96678.69;;;30.89;54.45
2397;BME280;1209;48.410;9.054;2022-07-21T12:47:13;96684.19;;;31.16;48.85
2397;BME280;1209;48.410;9.054;2022-07-21T12:49:56;96685.84;;;30.61;49.15
2397;BME280;1209;48.410;9.054;2022-07-21T12:52:23;96686.97;;;29.40;50.32
2397;BME280;1209;48.410;9.054;2022-07-21T12:54:48;96674.72;;;28.95;53.29
2397;BME280;1209;48.410;9.054;2022-07-21T12:57:14;96674.00;;;28.74;56.25
2397;BME280;1209;48.410;9.054;2022-07-21T12:59:39;96682.75;;;29.00;56.33
2397;BME280;1209;48.410;9.054;2022-07-21T13:02:04;96676.69;;;29.95;55.73
2397;BME280;1209;48.410;9.054;2022-07-21T13:04:30;96683.47;;;30.54;51.96
2397;BME280;1209;48.410;9.054;2022-07-21T13:06:55;96672.72;;;31.24;50.30
2397;BME280;1209;48.410;9.054;2022-07-21T13:09:20;96678.75;;;30.84;49.90
2397;BME280;1209;48.410;9.054;2022-07-21T13:11:46;96677.19;;;29.97;53.61
2397;BME280;1209;48.410;9.054;2022-07-21T13:14:11;96673.72;;;29.49;53.06
2397;BME280;1209;48.410;9.054;2022-07-21T13:16:36;96665.03;;;29.23;54.32
2397;BME280;1209;48.410;9.054;2022-07-21T13:19:02;96663.81;;;29.10;55.04
2397;BME280;1209;48.410;9.054;2022-07-21T13:21:27;96678.94;;;30.12;55.63
2397;BME280;1209;48.410;9.054;2022-07-21T13:23:53;96676.06;;;30.65;50.57
2397;BME280;1209;48.410;9.054;2022-07-21T13:26:18;96667.03;;;31.07;51.03
2397;BME280;1209;48.410;9.054;2022-07-21T13:28:43;96663.84;;;31.24;47.47
2397;BME280;1209;48.410;9.054;2022-07-21T13:31:10;96668.34;;;31.42;48.46
2397;BME280;1209;48.410;9.054;2022-07-21T13:33:36;96668.69;;;30.89;53.41
2397;BME280;1209;48.410;9.054;2022-07-21T13:36:01;96663.38;;;30.28;55.77
2397;BME280;1209;48.410;9.054;2022-07-21T13:38:27;96659.22;;;30.54;48.47
2397;BME280;1209;48.410;9.054;2022-07-21T13:40:52;96657.19;;;30.65;47.65
2397;BME280;1209;48.410;9.054;2022-07-21T13:43:17;96660.88;;;30.13;49.22
2397;BME280;1209;48.410;9.054;2022-07-21T13:45:43;96664.59;;;29.45;51.24
2397;BME280;1209;48.410;9.054;2022-07-21T13:48:08;96650.84;;;29.47;57.07